Overview Statistics Trail Chart Weather Telemetry Raw packets
 

This is the latest recevied weather packets stored in our database for station/object KG4GJX. If no packets are shown the sender has not sent any weather packets the latest 10 day(s).

<< 6 7 8 9 10 11 12 >>
Time Temp. Humidity Pressure Rain* Wind** Luminosity Snow
1788493608 25° C 100% 1017.6 hPa 0 mm - - -
1788492945 25.56° C 100% 1017.9 hPa 0 mm - - -
1788490963 25.56° C 99% 1017.9 hPa 0 mm - - -
1788490301 25.56° C 98% 1017.9 hPa 0 mm - - -
1788488318 25.56° C 97% 1017.9 hPa 0 mm - - -
1788487656 26.11° C 96% 1017.9 hPa 0 mm - - -
1788486993 26.11° C 96% 1017.6 hPa 0 mm - - -
1788486331 26.11° C 95% 1017.6 hPa 0 mm - - -
1788485669 26.67° C 93% 1017.6 hPa 0 mm - - -
1788485007 26.67° C 92% 1017.2 hPa 0 mm - - -
1788483681 27.22° C 90% 1017.2 hPa 0 mm - - -
1788483018 27.78° C 88% 1016.9 hPa 0 mm - - -
1788482355 28.33° C 86% 1016.9 hPa 0 mm - - -
1788481693 28.89° C 81% 1016.9 hPa 0 mm - - -
1788481031 29.44° C 80% 1016.9 hPa 0 mm - - -
1788480369 30° C 74% 1016.5 hPa 0 mm - - -
1788479732 30.56° C 71% 1016.5 hPa 0 mm - - -
1788479043 31.11° C 68% 1016.5 hPa 0 mm - - -
1788478381 32.22° C 63% 1016.5 hPa 0 mm - - -
1788477719 33.33° C 60% 1016.5 hPa 0 mm - - -
1788477056 34.44° C 56% 1016.5 hPa 0 mm - - -
1788476394 35.56° C 53% 1016.5 hPa 0 mm - - -
1788475731 36.67° C 50% 1016.5 hPa 0 mm - - -
1788475068 37.22° C 48% 1016.5 hPa 0 mm - - -
1788474406 37.22° C 46% 1016.5 hPa 0 mm - - -

* Rain latest hour (hover to see other rain measurements)
** Current wind speed in m/s (hover to see current wind gust speed)